Austin/Bergstrom AFB, Texas
Current Conditions -  °F | °C
As of 11:53 PM on Sunday 28 Dec 2014 (Local Time) from KAUS Reporting Station
Clear Clear  
Wind Chill: 27°   Ceiling: Unl
Heat Index: 32°   Visibility: 10mi
Dew Point: 31°   Wind: 5mph
Humidity: 96%   Direction: 250°WSW
Pressure: 30.18"   Gusts: NA
Location:  30.2°N, 97.68°W
Report Text: KAUS 290553Z 25004KT 10SM CLR 00/M01 A3018 RMK AO2 SLP226 T00001006 10056 21017 400831017 50000
Loading
Personal Weather Stations






























Interactive Weather Map New forecast layout! Learn more

10-Day Weather Forecast

Advertisements
Track Severe Weather on mobile